Greater Kankakee Airport
KIKK : now visible

Airfield :











YOU CAN JOIN US ON...

 
LOGIN :

Register | Disclaimer

   EN    FR    IT 

 









Legend :    VFR   Marginal VFR   IFR   Intensive IFR   Very Intensive IFR
Visi :
Ceiling :
>= 8 km
>= 3000ft
5 to 8 km
1000 to 3000 ft
1500m to 5 km
500 to 1000 ft
800 to 1500m
200 to 500 ft
< 800m
< 200 ft
Symbols :   Thunderstorms  Fog  Heavy snow  Heavy precipitations  Wind > 20 kt






- Airport Elevation : 630 ft


KIKK - Greater Kankakee

CURRENT METAR :
  • 151235Z AUTO 29006KT 10SM OVC019 M05/M09 A3009 RMK AO2 T10521093

EXPIRED METARs :
  • 151215Z AUTO 30004KT 10SM OVC019 M05/M09 A3008 RMK AO2 T10531094
  • 151155Z AUTO 32005KT 10SM OVC019 M05/M09 A3008 RMK AO2 T10521095 11034 21053
  • 151135Z AUTO 30006KT 10SM OVC021 M05/M10 A3007 RMK AO2 T10521097
  • 151115Z AUTO 30006KT 10SM OVC021 M05/M09 A3006 RMK AO2 T10511090
  • 151055Z AUTO 30005KT 10SM OVC021 M05/M09 A3005 RMK AO2 T10521089
  • 151035Z AUTO 28007KT 10SM OVC019 M05/M09 A3004 RMK AO2 T10531092
  • 151015Z AUTO 29008KT 10SM OVC019 M05/M09 A3004 RMK AO2 T10501092
  • 150955Z AUTO 29008KT 10SM OVC019 M05/M09 A3003 RMK AO2 T10521095
  • 150935Z AUTO 29010KT 10SM OVC019 M05/M10 A3002 RMK AO2 T10531096

TAF N/A



MET'MAP, your aeronautical weather chart ! - Copyright ORBIFLY December 2007 - Disclaimer

ORBIFLY MET'MAP TEAM :

Programming & Development : Alexandra Zaïnal
Concept & original design : Baudouin d'Aumeries
Assistance for programming : Marc-Olivier Méhu
Technical & hardware support : Manuel Goepfert

Contact : metmap@orbifly.com




SOURCES & CREDITS :

   NOAA       Earth
Advisory